createdAt,value
2018-12-25T00:02:13.950Z,100334.81
2018-12-25T00:03:15.102Z,100336.83
2018-12-25T00:04:16.171Z,100334.67
2018-12-25T00:05:17.280Z,100335.50
2018-12-25T00:06:18.401Z,100338.17
2018-12-25T00:07:19.613Z,100333.33
2018-12-25T00:08:20.720Z,100334.16
2018-12-25T00:09:21.948Z,100335.02
2018-12-25T00:10:38.268Z,100335.83
2018-12-25T00:11:28.400Z,100334.50
2018-12-25T00:12:29.525Z,100339.84
2018-12-25T00:13:30.732Z,100336.69
2018-12-25T00:14:31.844Z,100329.48
2018-12-25T00:15:33.058Z,100338.84
2018-12-25T00:16:34.180Z,100329.00
2018-12-25T00:17:35.394Z,100328.48
2018-12-25T00:18:36.527Z,100331.67
2018-12-25T00:19:37.767Z,100330.16
2018-12-25T00:20:38.884Z,100324.81
2018-12-25T00:21:40.012Z,100318.63
2018-12-25T00:22:41.220Z,100323.47
2018-12-25T00:23:42.424Z,100327.48
2018-12-25T00:24:43.536Z,100331.02
2018-12-25T00:25:44.641Z,100323.81
2018-12-25T00:26:45.982Z,100328.82
2018-12-25T00:27:47.092Z,100325.66
2018-12-25T00:28:48.201Z,100326.00
2018-12-25T00:29:49.308Z,100324.33
2018-12-25T00:30:50.524Z,100321.50
2018-12-25T00:33:05.850Z,100323.81
2018-12-25T00:34:07.065Z,100321.98
2018-12-25T00:35:08.177Z,100324.19
2018-12-25T00:36:09.291Z,100319.80
2018-12-25T00:37:10.528Z,100317.12
2018-12-25T00:38:11.741Z,100322.98
2018-12-25T00:39:12.858Z,100323.81
2018-12-25T00:40:13.973Z,100318.63
2018-12-25T00:41:15.088Z,100319.97
2018-12-25T00:43:30.396Z,100316.78
2018-12-25T00:44:31.518Z,100314.10
2018-12-25T00:45:32.729Z,100316.44
2018-12-25T00:46:33.848Z,100315.10
2018-12-25T00:47:35.044Z,100316.44
2018-12-25T00:48:36.157Z,100310.27
2018-12-25T00:49:37.269Z,100314.28
2018-12-25T00:50:38.378Z,100315.63
2018-12-25T00:51:39.493Z,100317.10
2018-12-25T00:53:54.811Z,100318.78
2018-12-25T00:54:56.036Z,100328.14
2018-12-25T00:55:57.151Z,100325.98
2018-12-25T00:56:58.261Z,100327.80
2018-12-25T00:59:13.776Z,100322.11
2018-12-25T01:00:15.002Z,100323.45
2018-12-25T01:01:16.155Z,100330.14
2018-12-25T01:02:17.269Z,100322.63
2018-12-25T01:03:18.510Z,100322.11
2018-12-25T01:04:19.623Z,100328.98
2018-12-25T01:05:20.832Z,100325.78
2018-12-25T01:06:21.936Z,100327.12
2018-12-25T01:07:23.146Z,100324.45
2018-12-25T01:08:24.266Z,100325.78
2018-12-25T01:09:25.400Z,100322.11
2018-12-25T01:10:26.604Z,100320.78
2018-12-25T01:11:27.824Z,100319.44
2018-12-25T01:12:29.011Z,100323.79
2018-12-25T01:14:44.579Z,100323.31
2018-12-25T01:15:45.701Z,100320.97
2018-12-25T01:16:46.817Z,100322.65
2018-12-25T01:17:48.039Z,100315.10
2018-12-25T01:18:49.182Z,100319.12
2018-12-25T01:19:50.400Z,100312.77
2018-12-25T01:20:51.617Z,100314.10
2018-12-25T01:21:52.838Z,100308.75
2018-12-25T01:22:53.958Z,100314.44
2018-12-25T01:23:55.091Z,100305.08
2018-12-25T01:24:56.212Z,100306.08
2018-12-25T01:25:57.429Z,100303.73
2018-12-25T01:26:58.732Z,100306.78
2018-12-25T01:27:59.950Z,100304.97
2018-12-25T01:29:01.209Z,100304.97
2018-12-25T01:30:02.933Z,100316.49
2018-12-25T01:31:04.147Z,100312.48
2018-12-25T01:32:05.367Z,100312.48
2018-12-25T01:33:06.592Z,100310.80
2018-12-25T01:35:22.141Z,100308.47
2018-12-25T01:36:23.372Z,100316.02
2018-12-25T01:37:24.491Z,100304.45
2018-12-25T01:38:25.712Z,100311.48
2018-12-25T01:39:26.947Z,100309.80
2018-12-25T01:40:28.072Z,100315.16
2018-12-25T01:41:29.290Z,100317.83
2018-12-25T01:42:30.403Z,100307.27
2018-12-25T01:43:31.633Z,100313.96
2018-12-25T01:44:32.869Z,100298.35
2018-12-25T01:45:34.100Z,100315.30
2018-12-25T01:46:35.324Z,100313.48
2018-12-25T01:47:36.550Z,100310.43
2018-12-25T01:48:37.772Z,100306.41
2018-12-25T01:49:39.193Z,100313.62
2018-12-25T01:50:40.410Z,100306.41
2018-12-25T01:51:41.645Z,100309.61
2018-12-25T01:52:42.766Z,100306.08
2018-12-25T01:53:43.986Z,100311.77
2018-12-25T01:54:45.239Z,100313.11
2018-12-25T01:55:46.385Z,100308.75
2018-12-25T01:56:47.603Z,100312.77
2018-12-25T01:57:48.745Z,100305.73
2018-12-25T01:58:49.885Z,100303.40
2018-12-25T01:59:51.117Z,100302.06
2018-12-25T02:00:52.329Z,100304.73
2018-12-25T02:01:53.451Z,100302.06
2018-12-25T02:02:54.573Z,100304.73
2018-12-25T02:03:55.796Z,100301.72
2018-12-25T02:04:56.929Z,100298.05
2018-12-25T02:05:58.056Z,100299.91
2018-12-25T02:06:59.192Z,100297.70
2018-12-25T02:08:00.322Z,100294.89
2018-12-25T02:09:01.558Z,100301.72
2018-12-25T02:10:24.346Z,100294.37
2018-12-25T02:11:25.579Z,100304.25
2018-12-25T02:12:26.810Z,100295.71
2018-12-25T02:13:27.939Z,100288.53
2018-12-25T02:14:29.063Z,100297.05
2018-12-25T02:15:30.197Z,100297.91
2018-12-25T02:16:31.318Z,100286.34
2018-12-25T02:17:32.555Z,100281.51
2018-12-25T02:18:33.704Z,100289.39
2018-12-25T02:19:40.246Z,100284.37
2018-12-25T02:20:38.084Z,100287.58
2018-12-25T02:21:39.197Z,100283.05
2018-12-25T02:22:40.404Z,100289.73
2018-12-25T02:23:41.510Z,100298.09
2018-12-25T02:24:42.631Z,100295.94
2018-12-25T02:25:44.137Z,100287.91
2018-12-25T02:26:45.343Z,100287.91
2018-12-25T02:27:46.455Z,100292.75
2018-12-25T02:28:47.564Z,100293.12
2018-12-25T02:29:48.769Z,100288.25
2018-12-25T02:30:50.000Z,100291.78
2018-12-25T02:31:51.218Z,100300.15
2018-12-25T02:32:52.325Z,100296.13
2018-12-25T02:33:53.433Z,100294.80
2018-12-25T02:34:54.545Z,100289.78
2018-12-25T02:35:55.667Z,100295.95
2018-12-25T02:36:56.777Z,100297.30
2018-12-25T02:37:57.989Z,100293.28
2018-12-25T02:38:59.098Z,100301.16
2018-12-25T02:40:00.239Z,100297.15
2018-12-25T02:41:01.430Z,100302.98
2018-12-25T02:42:02.656Z,100302.16
2018-12-25T02:43:03.767Z,100305.18
2018-12-25T02:44:04.964Z,100295.81
2018-12-25T02:45:06.248Z,100304.66
2018-12-25T02:46:07.518Z,100305.18
2018-12-25T02:47:08.628Z,100302.98
2018-12-25T02:48:09.850Z,100298.63
2018-12-25T02:49:11.061Z,100297.81
2018-12-25T02:50:12.276Z,100305.18
2018-12-25T02:51:13.403Z,100305.52
2018-12-25T02:52:14.612Z,100299.48
2018-12-25T02:53:15.729Z,100290.12
2018-12-25T02:54:16.842Z,100268.11
2018-12-25T02:55:17.952Z,100280.75
2018-12-25T02:56:19.175Z,100291.94
2018-12-25T02:57:20.386Z,100287.92
2018-12-25T02:58:21.502Z,100286.11
2018-12-25T02:59:22.709Z,100293.80
2018-12-25T03:00:23.925Z,100292.45
2018-12-25T03:01:25.055Z,100303.64
2018-12-25T03:02:26.172Z,100300.48
2018-12-25T03:03:27.285Z,100299.97
2018-12-25T03:04:28.496Z,100299.83
2018-12-25T03:05:29.698Z,100305.18
2018-12-25T03:06:30.828Z,100304.84
2018-12-25T03:07:31.938Z,100303.16
2018-12-25T03:08:33.047Z,100297.30
2018-12-25T03:09:34.172Z,100289.27
2018-12-25T03:10:35.272Z,100289.78
2018-12-25T03:11:36.497Z,100289.78
2018-12-25T03:12:37.605Z,100285.77
2018-12-25T03:13:38.713Z,100288.92
2018-12-25T03:14:39.922Z,100287.59
2018-12-25T03:15:41.186Z,100287.25
2018-12-25T03:16:42.296Z,100284.91
2018-12-25T03:17:43.408Z,100288.25
2018-12-25T03:18:44.623Z,100290.92
2018-12-25T03:19:45.736Z,100290.92
2018-12-25T03:20:47.068Z,100283.75
2018-12-25T03:21:48.284Z,100277.55
2018-12-25T03:22:49.503Z,100271.33
2018-12-25T03:23:50.616Z,100277.06
2018-12-25T03:24:51.725Z,100279.73
2018-12-25T03:25:52.834Z,100276.20
2018-12-25T03:26:53.954Z,100269.52
2018-12-25T03:27:55.164Z,100269.03
2018-12-25T03:28:56.272Z,100264.50
2018-12-25T03:29:57.384Z,100262.34
2018-12-25T03:30:58.591Z,100264.02
2018-12-25T03:31:59.718Z,100255.65
2018-12-25T03:33:00.828Z,100254.65
2018-12-25T03:34:01.939Z,100259.48
2018-12-25T03:35:03.149Z,100264.02
2018-12-25T03:36:04.380Z,100251.13
2018-12-25T03:37:05.530Z,100243.43
2018-12-25T03:38:06.730Z,100251.97
2018-12-25T03:39:07.818Z,100249.63
2018-12-25T03:40:08.937Z,100253.98
2018-12-25T03:41:10.061Z,100254.47
2018-12-25T03:42:11.381Z,100247.78
2018-12-25T03:43:12.493Z,100245.10
2018-12-25T03:44:13.605Z,100253.65
2018-12-25T03:45:14.819Z,100257.15
2018-12-25T03:46:15.945Z,100252.65
2018-12-25T03:47:17.062Z,100251.80
2018-12-25T03:48:18.174Z,100262.50
2018-12-25T03:49:19.284Z,100257.66
2018-12-25T03:50:20.393Z,100253.13
2018-12-25T03:51:21.500Z,100259.00
2018-12-25T03:52:22.656Z,100245.28
2018-12-25T03:53:23.763Z,100247.96
2018-12-25T03:54:24.883Z,100240.93
2018-12-25T03:55:25.992Z,100252.98
2018-12-25T03:56:27.202Z,100248.96
2018-12-25T03:57:28.323Z,100248.11
2018-12-25T03:58:29.537Z,100247.25
2018-12-25T03:59:30.642Z,100247.25
2018-12-25T04:00:31.750Z,100253.13
2018-12-25T04:01:32.961Z,100254.94
2018-12-25T04:02:34.085Z,100245.23
2018-12-25T04:03:35.198Z,100250.11
2018-12-25T04:04:36.341Z,100250.59
2018-12-25T04:05:37.652Z,100251.44
2018-12-25T04:06:38.761Z,100242.56
2018-12-25T04:07:39.883Z,100242.56
2018-12-25T04:08:40.994Z,100240.37
2018-12-25T04:09:42.117Z,100226.50
2018-12-25T04:10:43.232Z,100235.88
2018-12-25T04:11:44.344Z,100239.41
2018-12-25T04:12:45.564Z,100241.56
2018-12-25T04:13:46.676Z,100244.23
2018-12-25T04:14:47.792Z,100242.89
2018-12-25T04:15:48.897Z,100240.56
2018-12-25T04:16:50.106Z,100240.22
2018-12-25T04:17:51.512Z,100231.19
2018-12-25T04:18:52.620Z,100238.88
2018-12-25T04:19:53.731Z,100232.53
2018-12-25T04:20:54.944Z,100228.52
2018-12-25T04:21:56.052Z,100236.20
2018-12-25T04:22:57.289Z,100239.73
2018-12-25T04:23:58.499Z,100230.52
2018-12-25T04:24:59.618Z,100225.50
2018-12-25T04:26:00.719Z,100220.16
2018-12-25T04:27:02.010Z,100221.48
2018-12-25T04:28:03.209Z,100223.83
2018-12-25T04:29:04.344Z,100231.70
2018-12-25T04:30:05.462Z,100234.88
2018-12-25T04:31:06.661Z,100229.52
2018-12-25T04:32:07.773Z,100241.08
2018-12-25T04:33:08.993Z,100230.03
2018-12-25T04:34:10.096Z,100230.86
2018-12-25T04:35:11.204Z,100234.39
2018-12-25T04:36:12.318Z,100233.05
2018-12-25T04:37:13.521Z,100237.55
2018-12-25T04:38:14.639Z,100237.55
2018-12-25T04:39:15.873Z,100229.52
2018-12-25T04:40:16.980Z,100229.86
2018-12-25T04:41:18.095Z,100225.84
2018-12-25T04:42:19.202Z,100225.50
2018-12-25T04:43:20.328Z,100235.20
2018-12-25T04:44:21.441Z,100227.17
2018-12-25T04:45:22.547Z,100225.84
2018-12-25T04:46:23.668Z,100226.70
2018-12-25T04:47:24.762Z,100205.89
2018-12-25T04:48:26.986Z,100228.89
2018-12-25T04:49:28.090Z,100217.33
2018-12-25T04:50:29.859Z,100226.21
2018-12-25T04:51:32.240Z,100225.84
2018-12-25T04:52:33.460Z,100223.53
2018-12-25T04:53:34.607Z,100214.17
2018-12-25T04:54:35.721Z,100216.47
2018-12-25T04:55:36.935Z,100222.34
2018-12-25T04:56:38.046Z,100229.86
2018-12-25T04:57:39.147Z,100229.86
2018-12-25T04:58:40.270Z,100229.52
2018-12-25T04:59:41.377Z,100235.39
2018-12-25T05:00:42.488Z,100223.34
2018-12-25T05:01:43.592Z,100223.83
2018-12-25T05:02:44.712Z,100226.98
2018-12-25T05:03:45.942Z,100226.98
2018-12-25T05:04:47.047Z,100224.80
2018-12-25T05:05:48.157Z,100218.62
2018-12-25T05:06:49.269Z,100220.45
2018-12-25T05:07:50.376Z,100215.09
2018-12-25T05:08:51.497Z,100225.80
2018-12-25T05:09:52.713Z,100227.13
2018-12-25T05:10:53.824Z,100238.69
2018-12-25T05:11:54.933Z,100233.48
2018-12-25T05:12:56.143Z,100229.47
2018-12-25T05:13:57.548Z,100234.48
2018-12-25T05:14:58.652Z,100231.81
2018-12-25T05:15:59.862Z,100215.56
2018-12-25T05:17:01.065Z,100231.81
2018-12-25T05:18:02.276Z,100239.02
2018-12-25T05:20:18.195Z,100236.83
2018-12-25T05:21:19.312Z,100231.98
2018-12-25T05:22:20.424Z,100238.16
2018-12-25T05:23:21.633Z,100241.35
2018-12-25T05:24:22.754Z,100240.50
2018-12-25T05:25:23.875Z,100243.69
2018-12-25T05:26:24.988Z,100242.35
2018-12-25T05:27:26.099Z,100241.02
2018-12-25T05:28:27.210Z,100240.16
2018-12-25T05:30:42.521Z,100248.53
2018-12-25T05:31:43.643Z,100257.41
2018-12-25T05:32:44.756Z,100262.76
2018-12-25T05:33:45.973Z,100261.91
2018-12-25T05:34:47.188Z,100255.22
2018-12-25T05:35:48.304Z,100255.55
2018-12-25T05:36:49.509Z,100269.45
2018-12-25T05:37:50.620Z,100265.77
2018-12-25T05:38:51.731Z,100268.94
2018-12-25T05:39:52.858Z,100269.27
2018-12-25T05:40:53.976Z,100261.77
2018-12-25T05:41:55.085Z,100247.87
2018-12-25T05:42:56.289Z,100250.39
2018-12-25T05:43:57.503Z,100245.19
2018-12-25T05:44:58.724Z,100252.22
2018-12-25T05:45:59.938Z,100248.54
2018-12-25T05:47:01.140Z,100245.53
2018-12-25T05:48:02.250Z,100252.73
2018-12-25T05:49:03.358Z,100259.24
2018-12-25T05:50:05.435Z,100256.57
2018-12-25T05:51:06.649Z,100259.24
2018-12-25T05:52:07.760Z,100255.09
2018-12-25T05:53:08.872Z,100260.58
2018-12-25T05:54:09.981Z,100262.44
2018-12-25T05:56:25.293Z,100258.77
2018-12-25T05:57:26.522Z,100263.97
2018-12-25T05:58:27.631Z,100262.62
2018-12-25T05:59:28.840Z,100261.30
2018-12-25T06:00:29.960Z,100252.27
2018-12-25T06:01:31.074Z,100252.27
2018-12-25T06:02:32.182Z,100246.42
2018-12-25T06:03:33.291Z,100250.44
2018-12-25T06:04:34.402Z,100254.45
2018-12-25T06:06:49.717Z,100267.33
2018-12-25T06:07:50.847Z,100268.66
2018-12-25T06:08:51.957Z,100271.33
2018-12-25T06:09:53.182Z,100267.33
2018-12-25T06:10:54.400Z,100240.48
2018-12-25T06:11:55.613Z,100262.62
2018-12-25T06:12:56.720Z,100260.30
2018-12-25T06:13:57.930Z,100258.14
2018-12-25T06:14:59.041Z,100259.58
2018-12-25T06:16:00.267Z,100259.95
2018-12-25T06:17:01.380Z,100252.41
2018-12-25T06:18:02.494Z,100254.23
2018-12-25T06:19:03.616Z,100251.07
2018-12-25T06:20:04.757Z,100248.88
2018-12-25T06:22:20.694Z,100256.42
2018-12-25T06:23:21.816Z,100259.58
2018-12-25T06:24:22.931Z,100247.54
2018-12-25T06:25:24.040Z,100261.30
2018-12-25T06:26:25.167Z,100255.09
2018-12-25T06:27:26.293Z,100250.73
2018-12-25T06:28:27.406Z,100252.89
2018-12-25T06:29:28.512Z,100250.39
2018-12-25T06:30:29.813Z,100245.53
2018-12-25T06:31:31.045Z,100245.87
2018-12-25T06:32:32.163Z,100250.87
2018-12-25T06:33:33.260Z,100249.88
2018-12-25T06:34:34.373Z,100248.54
2018-12-25T06:35:35.582Z,100245.53
2018-12-25T06:36:36.805Z,100243.19
2018-12-25T06:37:37.919Z,100245.53
2018-12-25T06:38:39.036Z,100241.85
2018-12-25T06:39:40.145Z,100240.17
2018-12-25T06:40:41.259Z,100240.52
2018-12-25T06:41:42.380Z,100238.17
2018-12-25T06:42:43.492Z,100241.85
2018-12-25T06:43:44.602Z,100241.37
2018-12-25T06:44:45.719Z,100238.06
2018-12-25T06:45:46.830Z,100244.23
2018-12-25T06:48:02.160Z,100235.20
2018-12-25T06:49:03.269Z,100231.19
2018-12-25T06:50:04.376Z,100235.58
2018-12-25T06:51:05.487Z,100229.38
2018-12-25T06:53:21.421Z,100236.92
2018-12-25T06:54:22.533Z,100223.87
2018-12-25T06:55:23.642Z,100228.71
2018-12-25T06:56:24.749Z,100228.71
2018-12-25T06:57:25.897Z,100228.71
2018-12-25T06:58:27.008Z,100223.36
2018-12-25T06:59:28.118Z,100231.23
2018-12-25T07:00:29.225Z,100230.38
2018-12-25T07:01:30.337Z,100233.91
2018-12-25T07:02:31.461Z,100226.22
2018-12-25T07:03:32.573Z,100239.09
2018-12-25T07:04:33.682Z,100227.90
2018-12-25T07:05:34.790Z,100231.06
2018-12-25T07:06:35.903Z,100228.90
2018-12-25T07:08:51.216Z,100242.95
2018-12-25T07:09:52.436Z,100240.77
2018-12-25T07:10:53.644Z,100239.09
2018-12-25T07:11:54.753Z,100238.60
2018-12-25T07:12:56.076Z,100238.60
2018-12-25T07:13:57.184Z,100235.59
2018-12-25T07:14:58.291Z,100233.40
2018-12-25T07:15:59.396Z,100231.23
2018-12-25T07:17:00.505Z,100238.27
2018-12-25T07:18:01.626Z,100233.91
2018-12-25T07:19:02.938Z,100237.93
2018-12-25T07:20:04.046Z,100238.41
2018-12-25T07:21:12.154Z,100241.09
2018-12-25T07:22:08.173Z,100248.63
2018-12-25T07:23:09.812Z,100250.97
2018-12-25T07:24:10.916Z,100251.45
2018-12-25T07:25:12.028Z,100253.65
2018-12-25T07:26:13.147Z,100247.45
2018-12-25T07:27:14.369Z,100252.80
2018-12-25T07:28:15.599Z,100253.31
2018-12-25T07:29:16.692Z,100251.97
2018-12-25T07:30:17.799Z,100255.13
2018-12-25T07:31:18.912Z,100246.63
2018-12-25T07:32:20.116Z,100246.77
2018-12-25T07:34:35.552Z,100244.09
2018-12-25T07:35:36.672Z,100243.09
2018-12-25T07:36:37.786Z,100232.39
2018-12-25T07:37:38.896Z,100231.19
2018-12-25T07:38:40.023Z,100228.03
2018-12-25T07:39:41.128Z,100236.55
2018-12-25T07:40:42.239Z,100234.39
2018-12-25T07:41:43.347Z,100233.53
2018-12-25T07:42:44.458Z,100239.41
2018-12-25T07:43:45.620Z,100237.55
2018-12-25T07:44:46.789Z,100244.23
2018-12-25T07:45:47.915Z,100238.06
2018-12-25T07:46:49.126Z,100237.55
2018-12-25T07:47:50.229Z,100244.58
2018-12-25T07:48:51.361Z,100239.22
2018-12-25T07:49:52.564Z,100232.53
2018-12-25T07:50:53.673Z,100218.67
2018-12-25T07:51:54.882Z,100221.53
2018-12-25T07:52:56.091Z,100216.18
2018-12-25T07:53:57.810Z,100218.86
2018-12-25T07:54:58.908Z,100235.73
2018-12-25T07:56:00.020Z,100220.20
2018-12-25T07:57:01.231Z,100229.38
2018-12-25T07:58:02.439Z,100233.40
2018-12-25T07:59:03.557Z,100240.94
2018-12-25T08:00:46.083Z,100242.62
2018-12-25T08:01:47.208Z,100235.41
2018-12-25T08:02:48.321Z,100239.28
2018-12-25T08:03:49.432Z,100246.31
2018-12-25T08:04:50.553Z,100241.77
2018-12-25T08:05:53.474Z,100242.11
2018-12-25T08:06:54.679Z,100234.94
2018-12-25T08:07:55.817Z,100236.61
2018-12-25T08:08:56.926Z,100233.27
2018-12-25T08:09:58.161Z,100230.93
2018-12-25T08:10:59.277Z,100220.56
2018-12-25T08:12:01.983Z,100219.05
2018-12-25T08:13:03.622Z,100216.70
2018-12-25T08:14:04.737Z,100224.59
2018-12-25T08:16:20.045Z,100223.25
2018-12-25T08:17:21.162Z,100223.59
2018-12-25T08:18:22.282Z,100229.27
2018-12-25T08:19:23.393Z,100226.78
2018-12-25T08:21:38.704Z,100224.46
2018-12-25T08:22:39.819Z,100227.30
2018-12-25T08:23:40.934Z,100226.67
2018-12-25T08:24:42.149Z,100229.51
2018-12-25T08:25:43.373Z,100236.39
2018-12-25T08:26:44.578Z,100236.06
2018-12-25T08:27:45.791Z,100238.59
2018-12-25T08:28:46.899Z,100232.23
2018-12-25T08:29:48.010Z,100242.77
2018-12-25T08:30:49.252Z,100248.16
2018-12-25T08:31:50.465Z,100238.47
2018-12-25T08:32:51.594Z,100234.12
2018-12-25T08:33:52.810Z,100229.42
2018-12-25T08:34:53.917Z,100231.92
2018-12-25T08:35:55.037Z,100241.48
2018-12-25T08:36:56.153Z,100241.48
2018-12-25T08:37:57.397Z,100246.33
2018-12-25T08:38:58.494Z,100245.32
2018-12-25T08:39:59.707Z,100247.17
2018-12-25T08:41:01.204Z,100249.00
2018-12-25T08:42:02.420Z,100249.52
2018-12-25T08:43:03.524Z,100260.24
2018-12-25T08:44:04.632Z,100262.25
2018-12-25T08:45:05.847Z,100256.56
2018-12-25T08:47:21.160Z,100255.55
2018-12-25T08:48:22.390Z,100249.34
2018-12-25T08:49:23.501Z,100249.67
2018-12-25T08:50:24.629Z,100250.69
2018-12-25T08:51:25.883Z,100241.45
2018-12-25T08:52:27.083Z,100235.06
2018-12-25T08:53:28.191Z,100234.91
2018-12-25T08:54:29.408Z,100230.03
2018-12-25T08:55:30.518Z,100233.91
2018-12-25T08:56:31.643Z,100236.73
2018-12-25T08:57:32.867Z,100241.27
2018-12-25T08:58:34.080Z,100243.09
2018-12-25T08:59:35.184Z,100245.96
2018-12-25T09:00:36.288Z,100252.48
2018-12-25T09:02:51.604Z,100249.80
2018-12-25T09:03:52.743Z,100247.11
2018-12-25T09:04:53.919Z,100244.95
2018-12-25T09:05:54.998Z,100240.08
2018-12-25T09:06:56.167Z,100241.09
2018-12-25T09:07:57.277Z,100242.95
2018-12-25T09:09:59.355Z,100254.15
2018-12-25T09:11:00.466Z,100248.45
2018-12-25T09:12:01.684Z,100247.11
2018-12-25T09:13:04.715Z,100246.44
2018-12-25T09:14:05.812Z,100250.95
2018-12-25T09:15:06.923Z,100244.09
2018-12-25T09:16:08.032Z,100245.44
2018-12-25T09:17:09.156Z,100244.77
2018-12-25T09:18:10.267Z,100247.45
2018-12-25T09:19:11.483Z,100253.80
2018-12-25T09:20:12.592Z,100253.47
2018-12-25T09:21:13.805Z,100244.43
2018-12-25T09:22:15.201Z,100244.43
2018-12-25T09:23:16.315Z,100242.57
2018-12-25T09:24:17.459Z,100249.61
2018-12-25T09:25:18.565Z,100254.30
2018-12-25T09:26:19.675Z,100253.47
2018-12-25T09:27:21.373Z,100252.95
2018-12-25T09:29:23.435Z,100261.84
2018-12-25T09:30:24.550Z,100265.34
2018-12-25T09:32:26.744Z,100265.86
2018-12-25T09:33:27.953Z,100267.69
2018-12-25T09:34:29.208Z,100255.15
2018-12-25T09:35:30.314Z,100262.33
2018-12-25T09:37:32.401Z,100263.85
2018-12-25T09:38:33.511Z,100260.32
2018-12-25T09:39:34.620Z,100268.53
2018-12-25T09:40:35.731Z,100268.53
2018-12-25T09:41:36.841Z,100266.86
2018-12-25T09:42:38.236Z,100263.84
2018-12-25T09:43:39.345Z,100266.19
2018-12-25T09:45:00.288Z,100265.85
2018-12-25T09:46:01.353Z,100266.86
2018-12-25T09:47:02.464Z,100256.63
2018-12-25T09:48:03.591Z,100255.29
2018-12-25T09:49:04.700Z,100249.59
2018-12-25T09:50:05.820Z,100248.44
2018-12-25T09:51:06.921Z,100253.13
2018-12-25T09:52:08.027Z,100250.44
2018-12-25T09:54:23.345Z,100251.59
2018-12-25T09:55:24.457Z,100255.13
2018-12-25T09:56:25.566Z,100257.13
2018-12-25T09:57:26.674Z,100250.59
2018-12-25T09:58:27.918Z,100260.45
2018-12-25T09:59:29.025Z,100257.43
2018-12-25T10:00:30.140Z,100258.09
2018-12-25T10:01:31.248Z,100261.63
2018-12-25T10:02:32.357Z,100257.61
2018-12-25T10:04:47.679Z,100253.74
2018-12-25T10:05:48.885Z,100249.73
2018-12-25T10:06:49.995Z,100252.92
2018-12-25T10:07:51.204Z,100248.91
2018-12-25T10:08:52.323Z,100245.71
2018-12-25T10:09:53.548Z,100253.41
2018-12-25T10:10:54.657Z,100242.70
2018-12-25T10:11:55.763Z,100246.23
2018-12-25T10:12:56.871Z,100250.39
2018-12-25T10:13:57.995Z,100252.25
2018-12-25T10:14:59.100Z,100246.71
2018-12-25T10:16:00.308Z,100237.00
2018-12-25T10:17:01.412Z,100237.34
2018-12-25T10:18:02.522Z,100240.02
2018-12-25T10:19:03.644Z,100237.00
2018-12-25T10:20:04.850Z,100225.45
2018-12-25T10:21:05.952Z,100237.34
2018-12-25T10:22:07.081Z,100236.00
2018-12-25T10:23:08.192Z,100237.34
2018-12-25T10:25:23.616Z,100233.32
2018-12-25T10:26:24.744Z,100240.53
2018-12-25T10:27:25.933Z,100244.03
2018-12-25T10:28:27.042Z,100249.73
2018-12-25T10:29:28.295Z,100252.06
2018-12-25T10:30:29.409Z,100249.39
2018-12-25T10:31:30.520Z,100249.39
2018-12-25T10:32:31.631Z,100248.05
2018-12-25T10:33:32.847Z,100256.42
2018-12-25T10:34:33.963Z,100255.08
2018-12-25T10:35:35.069Z,100249.39
2018-12-25T10:36:36.180Z,100252.06
2018-12-25T10:37:37.289Z,100249.05
2018-12-25T10:38:38.407Z,100245.03
2018-12-25T10:39:39.521Z,100247.37
2018-12-25T10:40:40.632Z,100226.61
2018-12-25T10:41:41.745Z,100241.20
2018-12-25T10:42:42.853Z,100241.69
2018-12-25T10:43:43.963Z,100243.87
2018-12-25T10:44:45.084Z,100235.17
2018-12-25T10:45:46.202Z,100248.38
2018-12-25T10:46:47.409Z,100245.03
2018-12-25T10:47:48.623Z,100252.06
2018-12-25T10:48:49.734Z,100249.90
2018-12-25T10:49:50.857Z,100248.56
2018-12-25T10:50:51.964Z,100247.70
2018-12-25T10:51:53.073Z,100247.37
2018-12-25T10:52:54.281Z,100248.70
2018-12-25T10:53:55.388Z,100244.36
2018-12-25T10:54:56.515Z,100252.39
2018-12-25T10:55:57.627Z,100243.53
2018-12-25T10:56:58.732Z,100239.18
2018-12-25T10:57:59.841Z,100235.65
2018-12-25T10:59:01.156Z,100241.86
2018-12-25T11:00:43.712Z,100240.67
2018-12-25T11:01:44.974Z,100247.36
2018-12-25T11:02:46.194Z,100235.65
2018-12-25T11:03:47.449Z,100239.84
2018-12-25T11:04:48.668Z,100235.31
2018-12-25T11:05:50.190Z,100231.96
2018-12-25T11:06:51.323Z,100227.13
2018-12-25T11:07:52.448Z,100230.63
2018-12-25T11:08:53.593Z,100232.14
2018-12-25T11:09:54.835Z,100226.78
2018-12-25T11:10:56.371Z,100225.45
2018-12-25T11:11:57.606Z,100227.27
2018-12-25T11:12:58.834Z,100219.23
2018-12-25T11:14:00.085Z,100219.76
2018-12-25T11:15:01.298Z,100218.75
2018-12-25T11:16:02.422Z,100226.78
2018-12-25T11:17:03.649Z,100222.77
2018-12-25T11:18:04.779Z,100214.22
2018-12-25T11:19:06.012Z,100214.74
2018-12-25T11:20:11.453Z,100215.56
2018-12-25T11:21:10.383Z,100211.55
2018-12-25T11:22:19.684Z,100203.03
2018-12-25T11:23:14.800Z,100211.06
2018-12-25T11:24:15.934Z,100205.19
2018-12-25T11:25:17.084Z,100208.20
2018-12-25T11:26:18.223Z,100208.20
2018-12-25T11:27:19.448Z,100206.37
2018-12-25T11:28:20.674Z,100201.51
2018-12-25T11:29:21.799Z,100207.20
2018-12-25T11:30:23.047Z,100199.17
2018-12-25T11:31:24.565Z,100212.41
2018-12-25T11:32:25.790Z,100187.45
2018-12-25T11:33:27.014Z,100197.68
2018-12-25T11:34:28.242Z,100201.70
2018-12-25T11:35:29.472Z,100204.71
2018-12-25T11:36:30.709Z,100196.16
2018-12-25T11:37:31.925Z,100205.05
2018-12-25T11:38:33.037Z,100202.03
2018-12-25T11:39:34.170Z,100196.67
2018-12-25T11:40:36.309Z,100194.82
2018-12-25T11:41:37.539Z,100197.50
2018-12-25T11:42:38.762Z,100201.36
2018-12-25T11:43:39.877Z,100201.85
2018-12-25T11:44:41.096Z,100201.36
2018-12-25T11:45:42.312Z,100195.49
2018-12-25T11:47:57.748Z,100202.19
2018-12-25T11:48:58.875Z,100206.54
2018-12-25T11:50:00.000Z,100202.52
2018-12-25T11:51:01.230Z,100200.18
2018-12-25T11:52:02.497Z,100202.04
2018-12-25T11:54:26.327Z,100191.33
2018-12-25T11:55:27.532Z,100195.16
2018-12-25T11:56:28.644Z,100192.15
2018-12-25T11:57:29.766Z,100178.77
2018-12-25T11:58:30.883Z,100190.47
2018-12-25T11:59:31.989Z,100181.62
2018-12-25T12:00:33.192Z,100192.33
2018-12-25T12:01:34.319Z,100189.13
2018-12-25T12:03:49.628Z,100180.77
2018-12-25T12:04:50.755Z,100184.30
2018-12-25T12:05:51.868Z,100187.46
2018-12-25T12:06:52.979Z,100178.61
2018-12-25T12:07:54.205Z,100175.08
2018-12-25T12:08:55.312Z,100177.75
2018-12-25T12:09:56.428Z,100172.06
2018-12-25T12:10:57.535Z,100177.42
2018-12-25T12:11:58.660Z,100177.59
2018-12-25T12:12:59.885Z,100175.41
2018-12-25T12:14:01.090Z,100184.78
2018-12-25T12:15:02.300Z,100174.06
2018-12-25T12:16:03.406Z,100176.75
2018-12-25T12:17:04.516Z,100176.41